Prospect Creek, Prospect Cree, AK

7:51 AM AKDT on October 01, 2016 (GMT -0800)
Bettles | | Change Station

Elev 643 ft 66.91 °N, 151.53 °W | Updated 58 minutes ago

Partly Cloudy
Partly Cloudy
28 °F
Feels Like 21 °F
N
7
Wind Variable Wind from NNW

Today
High -- | Low -- °F
--% Chance of Precip.
Yesterday
High -- | Low -- °F
Precip. -- in
Pressure 30.13 in
Visibility 10.0 miles
Clouds Few 15000 ft
Windchill 21 °F
Dew Point 24 °F
Humidity 85%
Rainfall 0.00 in
Snow Depth Not available.
8:16 AM 7:25 PM
New Moon, 0% visible
METAR PABT 011453Z 34006KT 10SM FEW150 M02/M04 A3008 RMK AO2 SLP201 T10221044 57016
Pressure 30.13 in
Visibility 10.0 miles
Clouds Few 15000 ft
Windchill 21 °F
Dew Point 24 °F
Humidity 85%
Rainfall 0.00 in
Snow Depth Not available.
8:16 AM 7:25 PM
New Moon, 0% visible
METAR PABT 011453Z 34006KT 10SM FEW150 M02/M04 A3008 RMK AO2 SLP201 T10221044 57016

10-Day Weather Forecast

Almanac

Astronomy

Oct. 01, 2016 Rise Set
Actual Time
Civil Twilight
Nautical Twilight
Astronomical Twilight
Moon
Length of Visible Light
Length of Day
Tomorrow will be .
, % of the Moon is Illuminated

Today's Extremes

State Highs State Lows

Community

WunderPhotos

Upload Photos

1,942,957 photos uploaded!

WunderBlog® & News

Nearby

Air Quality

  Air Quality AQ Index Pollutant
Not available.

Snow Depth

Station Depth Elevation

Earthquake Activity

City Distance Mag. Time & Date
Minimum magnitude displayed is 2.5.

Coastal Water Temperatures

Place Temperature

Stations

Nearby Weather Stations

Station Location Temp. Windchill Dew Point Humidity Wind Precip. Elev Updated Type
                   

Watches & Warnings

There are currently no watches in effect.